Time;durP1;ratioP1;P1;durP2;ratioP2;P2;SDS_P1;SDS_P2;PMS_P1;PMS_P2;Temp;Humidity;BMP_temperature;BMP_pressure;BME280_temperature;BME280_humidity;BME280_pressure;Samples;Min_cycle;Max_cycle;Signal;HPM_P1;HPM_P2
2022/12/05 00:02:06;;;;;;;47.10;36.00;;;;;;;1.71;78.07;100951.20;108564;1279;23852;-78
2022/12/05 00:04:35;;;;;;;52.50;38.70;;;;;;;1.71;78.04;100958.57;108534;1276;24265;-78
2022/12/05 00:07:04;;;;;;;47.90;38.10;;;;;;;1.70;78.11;100959.95;108538;1274;22273;-77
2022/12/05 00:09:34;;;;;;;53.00;38.10;;;;;;;1.71;78.07;100963.73;108643;1274;23078;-79
2022/12/05 00:12:03;;;;;;;47.60;36.60;;;;;;;1.69;78.12;100962.86;108553;1274;21936;-79
2022/12/05 00:14:32;;;;;;;47.70;37.80;;;;;;;1.66;78.20;100961.61;108557;1274;21922;-78
2022/12/05 00:17:01;;;;;;;45.80;37.10;;;;;;;1.68;78.36;100959.59;108231;1283;21962;-78
2022/12/05 00:19:33;;;;;;;46.50;36.20;;;;;;;1.68;78.24;100958.03;108493;1280;22185;-79
2022/12/05 00:22:02;;;;;;;;;;;;;;;1.69;78.22;100957.19;108175;1279;21926;-78
2022/12/05 00:24:31;;;;;;;46.70;34.90;;;;;;;1.64;78.43;100955.95;108176;1280;21944;-78
2022/12/05 00:27:01;;;;;;;50.70;37.70;;;;;;;1.64;78.45;100949.25;107978;1285;24377;-77
2022/12/05 00:29:31;;;;;;;46.20;37.40;;;;;;;1.66;78.36;100939.66;107997;1285;21972;-77
2022/12/05 00:32:00;;;;;;;47.30;37.60;;;;;;;1.70;78.45;100937.47;108036;1277;21954;-77
2022/12/05 00:34:29;;;;;;;44.30;36.70;;;;;;;1.71;78.38;100934.03;108034;1276;21944;-77
2022/12/05 00:36:58;;;;;;;47.20;37.50;;;;;;;1.73;78.35;100946.75;108209;1281;22178;-77
2022/12/05 00:39:27;;;;;;;56.90;40.60;;;;;;;1.75;78.37;100961.02;108282;1280;21950;-78
2022/12/05 00:41:56;;;;;;;49.10;38.30;;;;;;;1.75;78.26;100959.13;108075;1281;22049;-79
2022/12/05 00:44:25;;;;;;;42.90;33.90;;;;;;;1.75;78.26;100956.56;108524;1280;21951;-79
2022/12/05 00:46:54;;;;;;;51.70;39.00;;;;;;;1.76;78.26;100961.02;108529;1277;22159;-78
2022/12/05 00:49:23;;;;;;;49.00;36.60;;;;;;;1.76;78.29;100959.13;108243;1280;21971;-78
2022/12/05 00:51:53;;;;;;;45.90;38.00;;;;;;;1.76;78.25;100952.27;108182;1281;23587;-78
2022/12/05 00:54:24;;;;;;;49.10;37.90;;;;;;;1.78;78.34;100949.36;108204;1280;21950;-78
2022/12/05 00:56:55;;;;;;;49.10;37.90;;;;;;;1.79;78.30;100948.35;108203;1283;21948;-77
2022/12/05 00:59:24;;;;;;;46.80;37.40;;;;;;;1.78;78.23;100946.45;108141;1280;21946;-78
2022/12/05 01:01:53;;;;;;;46.70;36.60;;;;;;;1.78;78.13;100950.74;108288;1280;23631;-78
2022/12/05 01:04:24;;;;;;;45.80;37.40;;;;;;;1.76;78.11;100944.39;108219;1283;23674;-79
2022/12/05 01:06:55;;;;;;;46.50;36.50;;;;;;;1.73;78.28;100943.67;108198;1279;23164;-77
2022/12/05 01:09:25;;;;;;;41.30;34.30;;;;;;;1.73;78.18;100952.08;108501;1277;21999;-77
2022/12/05 01:11:54;;;;;;;49.60;35.90;;;;;;;1.72;78.22;100950.01;108452;1277;23693;-78
2022/12/05 01:14:24;;;;;;;44.30;34.20;;;;;;;1.72;78.20;100950.69;108496;1278;21927;-77
2022/12/05 01:16:55;;;;;;;50.30;36.70;;;;;;;1.71;78.16;100948.80;108608;1274;23673;-78
2022/12/05 01:19:29;;;;;;;43.00;34.80;;;;;;;1.71;78.17;100946.39;108611;1274;22052;-78
2022/12/05 01:21:59;;;;;;;48.60;37.20;;;;;;;1.70;78.23;100940.02;108556;1274;21925;-78
2022/12/05 01:24:31;;;;;;;44.80;35.30;;;;;;;1.69;78.24;100932.99;108578;1274;23603;-78
2022/12/05 01:27:00;;;;;;;42.70;33.60;;;;;;;1.69;78.16;100933.69;108616;1274;22255;-78
2022/12/05 01:29:29;;;;;;;45.70;36.00;;;;;;;1.68;78.15;100934.02;108599;1275;23576;-78
2022/12/05 01:31:58;;;;;;;42.90;35.10;;;;;;;1.65;78.07;100931.25;108485;1274;23797;-78
2022/12/05 01:34:28;;;;;;;47.00;39.00;;;;;;;1.56;78.13;100931.86;108525;1277;23043;-78
2022/12/05 01:36:57;;;;;;;45.30;37.70;;;;;;;1.53;78.24;100924.45;108577;1277;21946;-78
2022/12/05 01:39:26;;;;;;;44.10;35.20;;;;;;;1.55;78.34;100922.07;108565;1274;22009;-77
2022/12/05 01:41:56;;;;;;;43.40;34.70;;;;;;;1.55;78.29;100924.81;108208;1280;22106;-78
2022/12/05 01:44:25;;;;;;;44.20;36.10;;;;;;;1.54;78.16;100921.73;108118;1280;21975;-78
2022/12/05 01:46:55;;;;;;;43.00;36.30;;;;;;;1.53;78.25;100922.40;108444;1280;21950;-78
2022/12/05 01:49:42;;;;;;;42.10;36.40;;;;;;;1.53;78.30;100920.69;108280;1277;22002;-78
2022/12/05 01:52:21;;;;;;;46.50;39.10;;;;;;;1.51;78.32;100920.84;108200;1278;23053;-77
2022/12/05 01:54:55;;;;;;;43.00;36.70;;;;;;;1.52;78.36;100920.85;108357;1280;21981;-77
2022/12/05 01:57:25;;;;;;;45.90;36.90;;;;;;;1.48;78.34;100925.11;108236;1283;22010;-79
2022/12/05 02:00:00;;;;;;;45.00;35.40;;;;;;;1.47;78.27;100921.84;108318;1274;23057;-79
2022/12/05 02:02:45;;;;;;;44.30;35.50;;;;;;;1.45;78.41;100928.34;108478;1274;23046;-77
2022/12/05 02:05:22;;;;;;;46.70;37.30;;;;;;;1.46;78.44;100929.71;108549;1274;22026;-78
2022/12/05 02:07:54;;;;;;;42.60;33.50;;;;;;;1.46;78.36;100928.17;108117;1285;21952;-78
2022/12/05 02:10:27;;;;;;;46.80;34.90;;;;;;;1.46;78.42;100928.70;108212;1282;22005;-78
2022/12/05 02:13:03;;;;;;;;;;;;;;;1.47;78.44;100926.30;107745;1285;21938;-79
2022/12/05 02:15:51;;;;;;;41.60;32.40;;;;;;;1.38;78.52;100925.20;107455;1288;21947;-78
2022/12/05 02:19:29;;;;;;;40.00;32.70;;;;;;;1.36;78.59;100920.04;107381;1288;21949;-78
2022/12/05 02:22:35;;;;;;;48.10;34.80;;;;;;;1.33;78.61;100915.02;107509;1292;22048;-78
2022/12/05 02:25:42;;;;;;;45.20;34.80;;;;;;;1.33;78.60;100910.89;107404;1292;23157;-77
2022/12/05 02:28:46;;;;;;;45.50;35.00;;;;;;;1.34;78.69;100913.32;107440;1290;21962;-77
2022/12/05 02:31:39;;;;;;;40.90;31.70;;;;;;;1.34;78.68;100924.30;107754;1286;23408;-77
2022/12/05 02:34:34;;;;;;;38.90;32.20;;;;;;;1.34;78.63;100929.96;108056;1283;22272;-77
2022/12/05 02:37:15;;;;;;;43.40;33.40;;;;;;;1.34;78.57;100934.59;108322;1283;22421;-77
2022/12/05 02:40:13;;;;;;;41.00;34.40;;;;;;;1.37;78.69;100930.84;108103;1284;22040;-77
2022/12/05 02:43:11;;;;;;;38.20;30.40;;;;;;;1.39;78.59;100938.39;108140;1286;21952;-77
2022/12/05 02:45:44;;;;;;;42.10;34.80;;;;;;;1.40;78.61;100938.06;108175;1283;21978;-77
2022/12/05 02:48:16;;;;;;;40.20;32.70;;;;;;;1.43;78.58;100939.47;108142;1283;21979;-77
2022/12/05 02:50:48;;;;;;;42.70;33.60;;;;;;;1.43;78.47;100940.84;108234;1280;21945;-77
2022/12/05 02:53:20;;;;;;;40.70;31.70;;;;;;;1.44;78.37;100941.01;108282;1275;21931;-77
2022/12/05 02:55:49;;;;;;;;;;;;;;;1.41;78.36;100938.25;108556;1277;23162;-77
2022/12/05 02:58:35;;;;;;;43.20;32.80;;;;;;;1.32;78.52;100936.96;108522;1277;21931;-77
2022/12/05 03:01:04;;;;;;;46.10;34.10;;;;;;;1.28;78.58;100932.30;108445;1277;21937;-77
2022/12/05 03:03:34;;;;;;;44.10;33.90;;;;;;;1.29;78.52;100931.27;108493;1277;22026;-78
2022/12/05 03:06:26;;;;;;;43.40;34.70;;;;;;;1.30;78.50;100933.86;108779;1276;21959;-78
2022/12/05 03:09:11;;;;;;;47.20;36.10;;;;;;;1.28;78.56;100933.15;108526;1277;22351;-79
2022/12/05 03:12:03;;;;;;;37.90;31.70;;;;;;;1.30;78.56;100921.52;108495;1279;21948;-78
2022/12/05 03:15:03;;;;;;;38.00;30.70;;;;;;;1.34;78.55;100917.09;108485;1275;21976;-77
2022/12/05 03:17:41;;;;;;;44.70;33.50;;;;;;;1.34;78.62;100918.80;108578;1277;21957;-78
2022/12/05 03:20:44;;;;;;;41.40;33.50;;;;;;;1.35;78.49;100915.04;108519;1277;21905;-78
2022/12/05 03:23:24;;;;;;;43.50;33.80;;;;;;;1.34;78.47;100915.38;108383;1282;23608;-78
2022/12/05 03:25:56;;;;;;;42.80;34.60;;;;;;;1.36;78.47;100913.35;108480;1281;21935;-78
2022/12/05 03:28:49;;;;;;;42.10;34.60;;;;;;;1.41;78.58;100914.92;107800;1289;21955;-77
2022/12/05 03:31:33;;;;;;;43.40;37.00;;;;;;;1.46;78.52;100918.74;107775;1289;21942;-77
2022/12/05 03:34:05;;;;;;;40.40;34.20;;;;;;;1.48;78.47;100916.35;107749;1289;23708;-77
2022/12/05 03:36:40;;;;;;;41.90;33.70;;;;;;;1.49;78.39;100911.73;107831;1289;23110;-78
2022/12/05 03:39:17;;;;;;;43.80;33.50;;;;;;;1.49;78.39;100917.91;107707;1292;22819;-78
2022/12/05 03:42:20;;;;;;;47.10;36.00;;;;;;;1.45;78.23;100912.39;107740;1286;23065;-78
2022/12/05 03:44:57;;;;;;;41.00;33.30;;;;;;;1.43;78.33;100909.10;107534;1290;23683;-78
2022/12/05 03:47:36;;;;;;;45.90;37.90;;;;;;;1.42;78.29;100910.65;107963;1287;22045;-78
2022/12/05 03:50:24;;;;;;;48.80;37.50;;;;;;;1.40;78.32;100911.66;108061;1286;22578;-78
2022/12/05 03:53:23;;;;;;;46.90;37.00;;;;;;;1.40;78.43;100912.85;108181;1285;23636;-78
2022/12/05 03:56:05;;;;;;;47.50;36.40;;;;;;;1.38;78.43;100913.53;108051;1286;21957;-78
2022/12/05 03:59:17;;;;;;;52.10;38.20;;;;;;;1.38;78.46;100912.33;108348;1283;21976;-77
2022/12/05 04:01:48;;;;;;;48.30;37.40;;;;;;;1.39;78.49;100909.42;108755;1274;21942;-77
2022/12/05 04:04:27;;;;;;;50.60;38.60;;;;;;;1.38;78.54;100907.52;108731;1277;21935;-77
2022/12/05 04:07:03;;;;;;;51.70;40.20;;;;;;;1.37;78.45;100901.86;108726;1275;21923;-79
2022/12/05 04:09:50;;;;;;;52.70;37.90;;;;;;;1.37;78.44;100901.51;108590;1277;23781;-78
2022/12/05 04:12:30;;;;;;;46.10;37.00;;;;;;;1.37;78.49;100899.29;108776;1277;21945;-78
2022/12/05 04:15:07;;;;;;;50.30;38.10;;;;;;;1.36;78.56;100895.34;108683;1277;21935;-77
2022/12/05 04:17:51;;;;;;;48.60;36.60;;;;;;;1.34;78.53;100893.25;108579;1278;21933;-78
2022/12/05 04:23:29;;;;;;;54.70;38.40;;;;;;;1.29;78.65;100893.05;108738;1276;21947;-79
2022/12/05 04:26:20;;;;;;;52.40;39.50;;;;;;;1.29;78.59;100884.30;108496;1284;21957;-78
2022/12/05 04:29:06;;;;;;;56.50;40.70;;;;;;;1.27;78.69;100876.73;108423;1281;22084;-78
2022/12/05 04:31:42;;;;;;;50.40;39.40;;;;;;;1.25;78.69;100883.23;108324;1281;21937;-79
2022/12/05 04:34:14;;;;;;;50.40;37.70;;;;;;;1.27;78.72;100885.66;108388;1281;21993;-78
2022/12/05 04:36:56;;;;;;;53.40;40.70;;;;;;;1.28;78.71;100888.58;108347;1283;22001;-77
2022/12/05 04:39:38;;;;;;;51.80;39.10;;;;;;;1.26;78.77;100888.56;108378;1283;21972;-78
2022/12/05 04:42:14;;;;;;;56.60;42.00;;;;;;;1.24;78.85;100879.11;108436;1275;23116;-79
2022/12/05 04:44:51;;;;;;;55.10;40.60;;;;;;;1.25;78.86;100872.77;108827;1270;23045;-78
2022/12/05 04:47:29;;;;;;;50.40;39.60;;;;;;;1.27;78.76;100875.70;108751;1275;23598;-77
2022/12/05 04:50:00;;;;;;;54.90;38.60;;;;;;;1.25;78.81;100881.02;108741;1275;21927;-78
2022/12/05 04:52:31;;;;;;;53.10;40.10;;;;;;;1.25;78.83;100881.16;108519;1283;22163;-78
2022/12/05 04:55:13;;;;;;;52.30;41.90;;;;;;;1.25;78.86;100889.57;108460;1283;22235;-77
2022/12/05 04:58:13;;;;;;;54.20;40.60;;;;;;;1.24;78.93;100889.73;108467;1283;21950;-77
2022/12/05 05:01:07;;;;;;;49.40;37.40;;;;;;;1.23;78.97;100885.27;108561;1281;23610;-77
2022/12/05 05:03:50;;;;;;;49.60;38.50;;;;;;;1.24;78.95;100881.16;108686;1279;21928;-77
2022/12/05 05:06:19;;;;;;;58.20;43.40;;;;;;;1.23;78.94;100874.98;108599;1282;23142;-77
2022/12/05 05:08:55;;;;;;;53.10;41.40;;;;;;;1.25;78.97;100877.23;108416;1282;21941;-76
2022/12/05 05:11:32;;;;;;;52.60;38.70;;;;;;;1.25;78.91;100876.38;108535;1283;21938;-77
2022/12/05 05:14:02;;;;;;;49.20;37.60;;;;;;;1.26;78.97;100876.21;108555;1281;22149;-77
2022/12/05 05:16:38;;;;;;;50.00;37.90;;;;;;;1.26;78.88;100879.98;108638;1282;23067;-77
2022/12/05 05:19:10;;;;;;;53.10;39.80;;;;;;;1.26;78.91;100887.52;108505;1283;21941;-78
2022/12/05 05:21:42;;;;;;;49.40;39.20;;;;;;;1.27;78.96;100884.45;108486;1283;21939;-76
2022/12/05 05:24:11;;;;;;;;;;;;;;;1.26;78.97;100882.56;108641;1281;22129;-77
2022/12/05 05:26:45;;;;;;;49.70;36.00;;;;;;;1.21;79.12;100878.58;108517;1283;21928;-77
2022/12/05 05:29:17;;;;;;;50.40;37.60;;;;;;;1.21;79.19;100881.31;108486;1274;21941;-78
2022/12/05 05:31:49;;;;;;;55.30;39.90;;;;;;;1.23;79.09;100881.15;109005;1277;22909;-78
2022/12/05 05:34:18;;;;;;;53.40;39.60;;;;;;;1.25;79.09;100878.95;108891;1278;21928;-78
2022/12/05 05:36:51;;;;;;;54.40;39.80;;;;;;;1.27;79.16;100884.96;108874;1279;23616;-77
2022/12/05 05:39:21;;;;;;;52.80;39.40;;;;;;;1.28;79.08;100882.05;108755;1278;21955;-77
2022/12/05 05:41:51;;;;;;;52.30;40.80;;;;;;;1.29;79.05;100871.95;109141;1274;21931;-77
2022/12/05 05:44:20;;;;;;;51.40;40.90;;;;;;;1.28;78.94;100871.59;109002;1274;21984;-77
2022/12/05 05:46:50;;;;;;;51.90;39.50;;;;;;;1.29;78.99;100867.65;109003;1278;21917;-77
2022/12/05 05:49:19;;;;;;;54.60;42.20;;;;;;;1.27;79.00;100861.65;108763;1280;23786;-78
2022/12/05 05:51:49;;;;;;;52.50;42.00;;;;;;;1.29;78.99;100869.90;108765;1280;21919;-78
2022/12/05 05:54:18;;;;;;;52.70;40.90;;;;;;;1.30;78.93;100876.58;108796;1279;21932;-77
2022/12/05 05:56:47;;;;;;;50.70;39.90;;;;;;;1.29;78.98;100887.04;108804;1279;21962;-78
2022/12/05 05:59:17;;;;;;;56.00;40.90;;;;;;;1.28;78.92;100888.07;108897;1277;22149;-78
2022/12/05 06:01:48;;;;;;;59.40;40.40;;;;;;;1.28;78.91;100885.65;108768;1277;22125;-79
2022/12/05 06:04:29;;;;;;;55.10;41.70;;;;;;;1.28;78.97;100881.89;108831;1277;21948;-78
2022/12/05 06:06:58;;;;;;;55.10;39.20;;;;;;;1.27;78.96;100885.31;108757;1271;22010;-79
2022/12/05 06:09:27;;;;;;;55.30;42.80;;;;;;;1.25;79.02;100882.38;108741;1278;21939;-79
2022/12/05 06:11:56;;;;;;;61.60;48.40;;;;;;;1.26;79.04;100877.23;108830;1271;21919;-77
2022/12/05 06:14:32;;;;;;;59.60;44.40;;;;;;;1.27;79.01;100882.23;108808;1271;21932;-78
2022/12/05 06:17:01;;;;;;;61.50;44.80;;;;;;;1.32;79.18;100884.48;108382;1279;21956;-79
2022/12/05 06:19:32;;;;;;;70.60;54.40;;;;;;;1.38;79.04;100880.59;108170;1284;22930;-79
2022/12/05 06:22:01;;;;;;;65.30;51.20;;;;;;;1.42;78.94;100886.46;108161;1275;21994;-79
2022/12/05 06:24:33;;;;;;;56.00;42.90;;;;;;;1.42;78.92;100880.48;108188;1290;21941;-79
2022/12/05 06:27:05;;;;;;;55.00;42.50;;;;;;;1.45;78.93;100876.70;108302;1287;21973;-79
2022/12/05 06:29:34;;;;;;;53.40;42.50;;;;;;;1.44;78.83;100877.38;108513;1285;23649;-78
2022/12/05 06:32:04;;;;;;;55.90;42.50;;;;;;;1.44;78.80;100875.33;108202;1288;21966;-79
2022/12/05 06:34:34;;;;;;;53.70;43.00;;;;;;;1.44;78.70;100878.41;108250;1283;22917;-79
2022/12/05 06:37:09;;;;;;;61.20;46.70;;;;;;;1.43;78.78;100878.59;108858;1277;22384;-79
2022/12/05 06:39:40;;;;;;;50.20;41.40;;;;;;;1.45;78.75;100878.59;108755;1278;22421;-79
2022/12/05 06:42:09;;;;;;;57.80;45.30;;;;;;;1.43;78.63;100872.59;108737;1278;22007;-78
2022/12/05 06:44:39;;;;;;;52.00;41.70;;;;;;;1.43;78.62;100877.72;108699;1276;21948;-78
2022/12/05 06:47:08;;;;;;;53.50;42.10;;;;;;;1.43;78.74;100880.98;108796;1276;21949;-79
2022/12/05 06:49:37;;;;;;;54.20;43.30;;;;;;;1.45;78.71;100881.16;108709;1278;21954;-80
2022/12/05 06:52:10;;;;;;;51.20;40.80;;;;;;;1.45;78.70;100881.52;108818;1276;21943;-79
2022/12/05 06:54:39;;;;;;;59.40;42.30;;;;;;;1.47;78.68;100878.27;108856;1278;21968;-81
2022/12/05 06:57:11;;;;;;;51.00;41.20;;;;;;;1.46;78.63;100871.40;108910;1278;21938;-78
2022/12/05 06:59:40;;;;;;;51.90;40.10;;;;;;;1.46;78.63;100875.70;109139;1278;21935;-79
2022/12/05 07:02:12;;;;;;;68.30;41.50;;;;;;;1.49;78.60;100882.74;108828;1281;23609;-82
2022/12/05 07:04:41;;;;;;;49.90;38.80;;;;;;;1.47;78.59;100868.83;108908;1278;22247;-84
2022/12/05 07:07:12;;;;;;;48.30;38.60;;;;;;;1.50;78.54;100874.01;109178;1278;21955;-85
2022/12/05 07:09:52;;;;;;;49.60;38.90;;;;;;;1.50;78.48;100872.81;109088;1279;21955;-86
2022/12/05 07:12:28;;;;;;;51.50;42.00;;;;;;;1.51;78.50;100870.08;109124;1279;21963;-87
2022/12/05 07:14:59;;;;;;;54.70;40.60;;;;;;;1.53;78.51;100872.83;109222;1281;21968;-78
2022/12/05 07:17:28;;;;;;;62.60;45.00;;;;;;;1.57;78.55;100873.02;108913;1279;21935;-80
2022/12/05 07:19:57;;;;;;;59.20;46.10;;;;;;;1.59;78.49;100872.52;108774;1275;21932;-81
2022/12/05 07:22:27;;;;;;;58.40;42.50;;;;;;;1.58;78.36;100872.52;109434;1275;21962;-83
2022/12/05 07:24:56;;;;;;;55.50;42.20;;;;;;;1.56;78.34;100870.62;109310;1280;21943;-80
2022/12/05 07:27:26;;;;;;;47.50;40.20;;;;;;;1.58;78.40;100875.43;108748;1280;21950;-82
2022/12/05 07:29:59;;;;;;;52.30;42.20;;;;;;;1.57;78.22;100878.86;109190;1274;23055;-83
2022/12/05 07:32:33;;;;;;;53.80;40.20;;;;;;;1.54;78.30;100878.33;109187;1276;22765;-80
2022/12/05 07:35:02;;;;;;;54.40;43.20;;;;;;;1.57;78.33;100871.31;109051;1276;21964;-80
2022/12/05 07:37:31;;;;;;;52.60;41.80;;;;;;;1.59;78.33;100867.89;109201;1273;22714;-80
2022/12/05 07:40:05;;;;;;;46.40;37.10;;;;;;;1.62;78.28;100877.18;109009;1278;21933;-81
2022/12/05 07:42:34;;;;;;;51.60;38.90;;;;;;;1.60;78.19;100875.45;108932;1275;21925;-81
2022/12/05 07:45:04;;;;;;;51.10;41.40;;;;;;;1.59;78.28;100874.24;108929;1274;21933;-80
2022/12/05 07:47:45;;;;;;;53.80;41.50;;;;;;;1.60;78.27;100869.27;109174;1274;21930;-81
2022/12/05 07:50:17;;;;;;;54.50;42.60;;;;;;;1.60;78.23;100868.24;109142;1274;21956;-81
2022/12/05 07:52:52;;;;;;;52.60;40.20;;;;;;;1.60;78.21;100866.70;109099;1276;21991;-80
2022/12/05 07:55:22;;;;;;;43.70;36.80;;;;;;;1.59;78.17;100871.17;109070;1274;21936;-80
2022/12/05 07:57:54;;;;;;;50.70;38.10;;;;;;;1.57;78.15;100865.83;109075;1274;21949;-81
2022/12/05 08:00:26;;;;;;;50.90;37.50;;;;;;;1.58;78.19;100868.40;108997;1278;21945;-80
2022/12/05 08:03:01;;;;;;;52.60;43.10;;;;;;;1.60;78.24;100870.48;109080;1273;21973;-82
2022/12/05 08:05:33;;;;;;;49.70;40.40;;;;;;;1.61;78.21;100865.85;109191;1275;23581;-81
2022/12/05 08:08:04;;;;;;;50.00;40.60;;;;;;;1.64;78.26;100859.70;108824;1280;21944;-81
2022/12/05 08:10:36;;;;;;;52.30;40.20;;;;;;;1.66;78.17;100863.84;108794;1278;21907;-81
2022/12/05 08:13:07;;;;;;;47.30;40.30;;;;;;;1.69;78.16;100863.52;108897;1281;21972;-81
2022/12/05 08:15:41;;;;;;;53.10;42.80;;;;;;;1.72;78.11;100858.20;109029;1279;23726;-79
2022/12/05 08:18:10;;;;;;;52.40;41.60;;;;;;;1.74;78.06;100856.67;108727;1281;21941;-80
2022/12/05 08:20:42;;;;;;;49.60;39.10;;;;;;;1.79;78.17;100865.80;108843;1281;21940;-81
2022/12/05 08:23:11;;;;;;;52.90;41.40;;;;;;;1.82;78.07;100862.90;108719;1280;22277;-82
2022/12/05 08:25:40;;;;;;;50.40;40.60;;;;;;;1.83;78.03;100859.64;109224;1275;21957;-82
2022/12/05 08:28:17;;;;;;;52.00;41.70;;;;;;;1.87;77.99;100864.30;108768;1281;23052;-81
2022/12/05 08:30:46;;;;;;;;;;;;;;;1.90;78.02;100865.02;108911;1283;21931;-81
2022/12/05 08:33:39;;;;;;;54.50;41.10;;;;;;;1.89;78.30;100874.11;108671;1278;22064;-79
2022/12/05 08:36:14;;;;;;;55.80;42.00;;;;;;;1.97;78.33;100877.75;108586;1279;22619;-83
2022/12/05 08:38:47;;;;;;;60.00;47.10;;;;;;;2.07;78.27;100883.31;108616;1281;21991;-77
2022/12/05 08:41:16;;;;;;;56.40;44.20;;;;;;;2.19;78.41;100886.11;108377;1280;21934;-81
2022/12/05 08:43:51;;;;;;;55.00;43.60;;;;;;;2.29;78.08;100886.16;108006;1281;1253037;-81
2022/12/05 08:47:01;;;;;;;58.10;43.70;;;;;;;2.32;77.88;100882.91;108741;1280;23012;-77
2022/12/05 08:49:53;;;;;;;54.40;42.80;;;;;;;2.31;77.43;100881.70;108684;1275;21942;-80
2022/12/05 08:52:29;;;;;;;50.30;40.10;;;;;;;2.22;77.28;100877.89;108603;1274;21942;-80
2022/12/05 08:55:37;;;;;;;;;;;;;;;;;;;;;
2022/12/05 08:59:06;;;;;;;50.50;41.90;;;;;;;2.05;77.35;100879.17;108872;1280;22805;-85
2022/12/05 09:02:18;;;;;;;50.70;38.30;;;;;;;2.02;77.47;100872.81;108393;1288;21941;-83
2022/12/05 09:05:14;;;;;;;54.50;41.00;;;;;;;2.02;77.48;100872.11;108221;1285;21977;-83
2022/12/05 09:08:12;;;;;;;;;;;;;;;;;;;;;
2022/12/05 09:11:15;;;;;;;51.80;40.20;;;;;;;2.04;77.41;100876.77;107343;1296;22025;-82
2022/12/05 09:14:06;;;;;;;52.20;41.70;;;;;;;2.06;77.45;100872.31;107247;1295;21984;-83
2022/12/05 09:17:06;;;;;;;;;;;;;;;;;;;;;
2022/12/05 09:20:14;;;;;;;;;;;;;;;;;;;;;
2022/12/05 09:22:54;;;;;;;52.50;39.80;;;;;;;2.04;77.23;100876.09;107205;1298;21996;-82
2022/12/05 09:25:27;;;;;;;52.00;40.40;;;;;;;2.04;77.31;100873.16;107631;1292;21958;-82
2022/12/05 09:28:27;;;;;;;50.90;42.60;;;;;;;2.07;77.44;100873.35;108068;1290;23770;-82
2022/12/05 09:31:12;;;;;;;56.60;42.90;;;;;;;2.12;77.43;100873.89;108397;1286;23741;-79
2022/12/05 09:33:53;;;;;;;55.40;41.30;;;;;;;2.16;77.35;100873.75;107874;1288;22582;-79
2022/12/05 09:36:34;;;;;;;53.80;42.70;;;;;;;2.18;77.22;100875.98;108227;1288;23098;-78
2022/12/05 09:39:19;;;;;;;52.30;42.50;;;;;;;2.15;77.24;100870.12;108488;1274;21940;-79
2022/12/05 09:42:34;;;;;;;47.20;38.20;;;;;;;2.16;77.24;100867.55;108557;1275;22949;-79
2022/12/05 09:45:14;;;;;;;44.90;38.30;;;;;;;2.17;77.41;100867.05;109034;1278;21948;-79
2022/12/05 09:48:00;;;;;;;48.50;42.00;;;;;;;2.21;77.35;100866.90;109041;1275;21934;-79
2022/12/05 09:50:48;;;;;;;53.00;42.10;;;;;;;2.23;77.25;100861.06;108865;1275;21955;-79
2022/12/05 09:53:29;;;;;;;55.70;41.70;;;;;;;2.24;77.18;100861.06;109034;1275;23609;-80
2022/12/05 09:56:04;;;;;;;60.40;49.30;;;;;;;2.24;77.22;100852.99;108875;1277;21928;-79
2022/12/05 09:58:45;;;;;;;51.70;43.20;;;;;;;2.24;77.13;100850.77;108673;1274;22007;-79
2022/12/05 10:01:59;;;;;;;53.40;42.70;;;;;;;2.26;77.23;100850.09;108650;1275;22417;-79
2022/12/05 10:04:34;;;;;;;54.60;42.10;;;;;;;2.26;77.14;100843.90;108868;1275;23669;-80
2022/12/05 10:07:29;;;;;;;47.60;39.40;;;;;;;2.24;76.96;100841.50;109065;1272;21929;-80
2022/12/05 10:10:28;;;;;;;51.70;41.90;;;;;;;2.22;77.03;100842.00;108848;1275;23664;-80
2022/12/05 10:13:23;;;;;;;51.00;39.20;;;;;;;2.21;77.01;100841.82;108701;1274;21956;-79
2022/12/05 10:16:09;;;;;;;56.30;43.20;;;;;;;2.19;77.04;100835.80;108909;1275;21970;-80
2022/12/05 10:19:00;;;;;;;51.80;41.70;;;;;;;2.21;77.12;100833.92;108642;1275;23851;-79
2022/12/05 10:21:59;;;;;;;49.20;40.40;;;;;;;2.25;77.10;100834.95;108710;1275;21912;-79
2022/12/05 10:25:02;;;;;;;56.20;42.10;;;;;;;2.27;77.13;100839.61;109168;1275;22673;-78
2022/12/05 10:27:47;;;;;;;53.20;41.50;;;;;;;2.28;77.04;100832.92;108664;1280;21947;-79
2022/12/05 10:30:34;;;;;;;50.20;40.30;;;;;;;2.28;77.00;100833.08;108662;1281;23755;-79
2022/12/05 10:33:28;;;;;;;54.20;44.70;;;;;;;2.29;77.02;100825.36;108068;1283;22023;-79
2022/12/05 10:36:26;;;;;;;54.40;42.40;;;;;;;2.33;77.12;100826.59;108006;1284;22430;-79
2022/12/05 10:39:18;;;;;;;55.30;44.90;;;;;;;2.38;77.12;100820.23;108063;1288;23753;-79
2022/12/05 10:42:17;;;;;;;62.80;46.50;;;;;;;2.43;77.06;100818.72;107737;1289;21943;-79
2022/12/05 10:45:18;;;;;;;55.70;43.20;;;;;;;2.45;77.03;100814.77;107850;1284;22221;-81
2022/12/05 10:48:06;;;;;;;51.80;40.80;;;;;;;2.43;76.94;100807.37;108247;1286;21800;-79
2022/12/05 10:50:48;;;;;;;54.60;42.90;;;;;;;2.42;76.85;100803.41;108457;1284;21961;-80
2022/12/05 10:53:51;;;;;;;58.80;45.00;;;;;;;2.42;76.82;100801.70;108646;1284;21956;-80
2022/12/05 10:56:47;;;;;;;58.60;43.90;;;;;;;2.42;76.90;100796.03;108758;1282;22696;-83
2022/12/05 10:59:23;;;;;;;60.90;42.90;;;;;;;2.42;76.87;100798.27;108924;1279;21997;-80
2022/12/05 11:01:58;;;;;;;65.20;49.80;;;;;;;2.38;76.88;100798.77;108918;1279;21916;-79
2022/12/05 11:04:38;;;;;;;68.80;52.20;;;;;;;2.37;76.85;100795.84;108728;1279;22730;-81
2022/12/05 11:07:22;;;;;;;64.00;47.40;;;;;;;2.38;76.95;100792.94;109042;1274;21950;-79
2022/12/05 11:09:56;;;;;;;66.70;48.30;;;;;;;2.39;76.94;100790.88;108669;1275;21942;-76
2022/12/05 11:12:38;;;;;;;56.50;47.80;;;;;;;2.38;76.91;100781.59;108783;1274;22579;-80
2022/12/05 11:15:18;;;;;;;57.30;46.90;;;;;;;2.35;76.84;100774.05;108443;1282;21981;-80
2022/12/05 11:17:50;;;;;;;73.20;54.80;;;;;;;2.35;76.84;100768.88;108685;1281;21964;-84
2022/12/05 11:20:19;;;;;;;66.20;54.80;;;;;;;2.34;76.92;100764.23;108650;1285;23731;-81
2022/12/05 11:23:28;;;;;;;56.40;47.50;;;;;;;2.33;76.93;100765.95;108325;1289;21949;-84
2022/12/05 11:26:01;;;;;;;55.50;46.30;;;;;;;2.32;76.90;100770.58;108049;1289;22330;-83
2022/12/05 11:28:40;;;;;;;63.20;49.20;;;;;;;2.32;76.99;100768.17;107447;1297;21938;-81
2022/12/05 11:31:26;;;;;;;56.30;43.40;;;;;;;2.35;76.98;100765.45;107656;1293;22039;-80
2022/12/05 11:34:27;;;;;;;;;;;;;;;;;;;;;
2022/12/05 11:37:30;;;;;;;56.50;43.30;;;;;;;2.37;77.13;100769.05;107552;1290;23727;-81
2022/12/05 11:40:23;;;;;;;57.40;45.40;;;;;;;2.37;77.11;100766.83;108101;1285;23220;-80
2022/12/05 11:43:53;;;;;;;56.40;44.90;;;;;;;2.39;77.21;100764.43;108769;1279;21947;-81
2022/12/05 11:46:33;;;;;;;57.70;49.50;;;;;;;2.40;77.27;100764.95;108961;1274;24281;-83
2022/12/05 11:49:20;;;;;;;;;;;;;;;;;;;;;
2022/12/05 11:52:50;;;;;;;64.10;49.90;;;;;;;2.45;77.26;100762.56;108934;1276;23051;-79
2022/12/05 11:55:42;;;;;;;75.70;55.20;;;;;;;2.50;77.33;100762.73;109021;1274;23132;-79
2022/12/05 11:58:36;;;;;;;64.50;47.90;;;;;;;2.55;77.37;100768.05;108957;1274;21949;-82
2022/12/05 12:01:46;;;;;;;75.10;56.80;;;;;;;2.59;77.34;100771.34;109048;1274;24272;-79
2022/12/05 12:05:04;;;;;;;;;;;;;;;2.66;77.36;100775.46;109238;1273;24544;-82
2022/12/05 12:08:14;;;;;;;81.50;58.40;;;;;;;2.66;77.55;100775.45;109489;1272;21931;-83
2022/12/05 12:11:11;;;;;;;88.00;64.20;;;;;;;2.73;77.45;100774.27;109275;1275;21956;-84
2022/12/05 12:14:09;;;;;;;64.90;52.60;;;;;;;2.81;77.39;100768.95;109491;1274;21958;-86
2022/12/05 12:17:18;;;;;;;65.50;51.60;;;;;;;2.86;77.25;100766.90;109175;1274;23579;-84
2022/12/05 12:20:36;;;;;;;64.40;51.50;;;;;;;2.87;77.15;100764.15;109234;1274;21956;-83
2022/12/05 12:23:48;;;;;;;61.00;49.80;;;;;;;2.91;77.22;100760.02;109376;1274;23047;-83